createdAt,value
2023-04-02T00:00:14.833Z,0.63
2023-04-02T00:05:50.514Z,0.40
2023-04-02T00:10:56.744Z,0.38
2023-04-02T00:16:00.189Z,1.30
2023-04-02T00:21:08.485Z,1.13
2023-04-02T00:26:23.710Z,0.10
2023-04-02T00:31:27.115Z,0.68
2023-04-02T00:36:31.166Z,0.40
2023-04-02T00:41:39.677Z,1.48
2023-04-02T00:46:48.173Z,0.30
2023-04-02T00:51:53.792Z,2.75
2023-04-02T00:56:59.309Z,0.00
2023-04-02T01:02:22.332Z,0.73
2023-04-02T01:07:33.266Z,0.50
2023-04-02T01:12:51.684Z,0.30
2023-04-02T01:18:03.565Z,1.55
2023-04-02T01:23:09.131Z,0.82
2023-04-02T01:28:19.444Z,1.55
2023-04-02T01:33:24.905Z,0.38
2023-04-02T01:38:29.124Z,1.38
2023-04-02T01:43:35.414Z,0.63
2023-04-02T01:48:40.571Z,0.57
2023-04-02T01:53:43.486Z,0.68
2023-04-02T01:58:49.409Z,1.35
2023-04-02T02:03:54.837Z,0.15
2023-04-02T02:08:59.247Z,0.25
2023-04-02T02:14:02.658Z,0.20
2023-04-02T02:19:22.509Z,0.30
2023-04-02T02:24:27.517Z,0.67
2023-04-02T02:29:31.138Z,0.55
2023-04-02T02:34:38.693Z,0.32
2023-04-02T02:39:43.046Z,0.30
2023-04-02T02:44:49.057Z,0.30
2023-04-02T02:49:54.521Z,0.43
2023-04-02T02:54:58.967Z,2.28
2023-04-02T03:00:02.649Z,1.40
2023-04-02T03:05:07.800Z,1.02
2023-04-02T03:10:14.502Z,0.52
2023-04-02T03:15:33.600Z,0.85
2023-04-02T03:20:40.923Z,0.35
2023-04-02T03:25:47.003Z,0.20
2023-04-02T03:30:58.627Z,0.32
2023-04-02T03:36:06.398Z,0.10
2023-04-02T03:41:14.571Z,1.35
2023-04-02T03:46:23.595Z,0.47
2023-04-02T03:51:29.145Z,0.40
2023-04-02T03:56:42.129Z,1.58
2023-04-02T04:01:48.107Z,0.45
2023-04-02T04:06:53.570Z,2.13
2023-04-02T04:12:10.576Z,1.63
2023-04-02T04:17:16.407Z,1.95
2023-04-02T04:22:30.404Z,0.57
2023-04-02T04:27:38.142Z,0.47
2023-04-02T04:32:50.060Z,0.60
2023-04-02T04:37:59.245Z,0.15
2023-04-02T04:43:04.225Z,0.20
2023-04-02T04:48:09.514Z,1.17
2023-04-02T04:53:17.121Z,0.70
2023-04-02T04:58:23.089Z,0.38
2023-04-02T05:03:29.760Z,0.57
2023-04-02T05:08:37.233Z,0.80
2023-04-02T05:13:42.185Z,3.53
2023-04-02T05:18:48.590Z,0.50
2023-04-02T05:23:55.872Z,0.32
2023-04-02T05:29:00.555Z,0.30
2023-04-02T05:34:04.565Z,0.60
2023-04-02T05:39:10.890Z,0.25
2023-04-02T05:44:17.755Z,0.90
2023-04-02T05:49:22.706Z,0.20
2023-04-02T05:54:30.031Z,0.10
2023-04-02T05:59:34.775Z,0.63
2023-04-02T06:04:43.721Z,0.85
2023-04-02T06:09:49.310Z,0.40
2023-04-02T06:14:52.849Z,0.22
2023-04-02T06:19:57.686Z,0.20
2023-04-02T06:25:04.570Z,0.50
2023-04-02T06:30:08.425Z,0.45
2023-04-02T06:35:13.297Z,2.92
2023-04-02T06:45:22.046Z,1.13
2023-04-02T06:50:31.120Z,0.88
2023-04-02T06:55:40.121Z,2.40
2023-04-02T07:00:45.894Z,0.55
2023-04-02T07:05:49.323Z,0.52
2023-04-02T07:10:57.333Z,1.75
2023-04-02T07:16:12.882Z,4.70
2023-04-02T07:21:16.368Z,2.08
2023-04-02T07:26:20.024Z,0.47
2023-04-02T07:31:25.981Z,1.70
2023-04-02T07:36:30.516Z,1.23
2023-04-02T07:41:33.888Z,0.60
2023-04-02T07:46:37.793Z,1.55
2023-04-02T07:51:41.192Z,0.90
2023-04-02T07:56:43.840Z,1.08
2023-04-02T08:01:48.183Z,1.50
2023-04-02T08:06:52.882Z,2.75
2023-04-02T08:11:55.519Z,1.10
2023-04-02T08:16:59.620Z,1.88
2023-04-02T08:22:03.069Z,1.35
2023-04-02T08:27:05.688Z,6.50
2023-04-02T08:32:11.563Z,2.85
2023-04-02T08:37:14.382Z,1.30
2023-04-02T08:42:22.550Z,0.82
2023-04-02T08:47:29.885Z,1.20
2023-04-02T08:52:33.633Z,1.60
2023-04-02T08:57:38.740Z,0.82
2023-04-02T09:02:45.947Z,1.13
2023-04-02T09:07:50.389Z,1.90
2023-04-02T09:12:53.815Z,1.15
2023-04-02T09:23:03.829Z,0.98
2023-04-02T09:28:11.520Z,0.75
2023-04-02T09:33:14.116Z,1.58
2023-04-02T09:38:22.596Z,1.00
2023-04-02T09:43:26.518Z,2.60
2023-04-02T09:53:35.972Z,2.00
2023-04-02T09:58:38.850Z,0.60
2023-04-02T10:03:43.734Z,1.20
2023-04-02T10:08:48.618Z,1.63
2023-04-02T10:13:53.624Z,1.65
2023-04-02T10:18:59.172Z,0.90
2023-04-02T10:24:05.199Z,2.97
2023-04-02T10:29:23.064Z,1.10
2023-04-02T10:34:30.323Z,1.55
2023-04-02T10:39:36.787Z,1.92
2023-04-02T10:44:44.658Z,0.90
2023-04-02T10:49:51.325Z,1.70
2023-04-02T10:54:57.344Z,1.13
2023-04-02T11:00:07.989Z,0.52
2023-04-02T11:05:20.778Z,1.23
2023-04-02T11:10:27.553Z,1.50
2023-04-02T11:15:30.665Z,2.00
2023-04-02T11:20:44.264Z,0.70
2023-04-02T11:25:49.662Z,1.83
2023-04-02T11:30:53.370Z,1.17
2023-04-02T11:35:56.872Z,2.28
2023-04-02T11:41:01.806Z,0.73
2023-04-02T11:46:05.504Z,2.33
2023-04-02T11:56:20.075Z,0.73
2023-04-02T12:01:30.406Z,0.82
2023-04-02T12:06:42.391Z,0.77
2023-04-02T12:11:47.334Z,1.13
2023-04-02T12:16:50.785Z,1.73
2023-04-02T12:21:54.558Z,2.38
2023-04-02T12:27:17.899Z,1.13
2023-04-02T12:32:22.997Z,1.48
2023-04-02T12:37:27.093Z,1.25
2023-04-02T12:42:32.806Z,1.23
2023-04-02T12:47:35.617Z,1.50
2023-04-02T12:52:45.226Z,1.77
2023-04-02T12:57:50.775Z,2.22
2023-04-02T13:03:01.073Z,1.80
2023-04-02T13:08:04.737Z,2.55
2023-04-02T13:13:14.624Z,1.23
2023-04-02T13:18:21.012Z,2.53
2023-04-02T13:23:25.452Z,2.97
2023-04-02T13:28:29.455Z,1.27
2023-04-02T13:38:34.997Z,1.60
2023-04-02T13:43:38.981Z,1.97
2023-04-02T13:53:44.077Z,2.03
2023-04-02T13:58:48.218Z,2.58
2023-04-02T14:03:51.854Z,1.92
2023-04-02T14:08:57.798Z,2.23
2023-04-02T14:14:11.676Z,1.50
2023-04-02T14:19:21.101Z,1.48
2023-04-02T14:24:28.678Z,8.85
2023-04-02T14:29:36.342Z,0.82
2023-04-02T14:34:54.765Z,1.42
2023-04-02T14:40:03.980Z,1.42
2023-04-02T14:45:11.028Z,0.30
2023-04-02T14:50:17.538Z,3.28
2023-04-02T14:55:25.088Z,1.10
2023-04-02T15:00:33.656Z,1.35
2023-04-02T15:05:41.846Z,1.40
2023-04-02T15:10:49.566Z,0.80
2023-04-02T15:15:56.954Z,1.15
2023-04-02T15:21:05.755Z,3.30
2023-04-02T15:26:13.648Z,1.10
2023-04-02T15:31:18.520Z,3.83
2023-04-02T15:36:41.720Z,1.10
2023-04-02T15:41:54.379Z,1.52
2023-04-02T15:47:06.498Z,1.90
2023-04-02T15:52:13.429Z,3.63
2023-04-02T15:57:21.855Z,3.22
2023-04-02T16:02:37.821Z,3.58
2023-04-02T16:07:52.940Z,4.63
2023-04-02T16:12:57.223Z,3.13
2023-04-02T16:18:02.845Z,2.88
2023-04-02T16:23:08.110Z,4.22
2023-04-02T16:28:16.303Z,4.82
2023-04-02T16:33:43.774Z,5.85
2023-04-02T16:38:53.973Z,5.53
2023-04-02T16:44:01.103Z,4.13
2023-04-02T16:49:07.897Z,4.45
2023-04-02T16:54:14.353Z,3.60
2023-04-02T16:59:20.985Z,5.80
2023-04-02T17:04:29.544Z,4.22
2023-04-02T17:09:41.809Z,5.50
2023-04-02T17:14:47.919Z,4.72
2023-04-02T17:19:52.197Z,3.35
2023-04-02T17:24:58.286Z,3.45
2023-04-02T17:30:02.499Z,4.97
2023-04-02T17:40:19.619Z,7.32
2023-04-02T17:45:25.335Z,4.30
2023-04-02T17:50:46.200Z,6.22
2023-04-02T17:56:00.329Z,4.72
2023-04-02T18:01:06.621Z,6.22
2023-04-02T18:06:11.461Z,6.78
2023-04-02T18:11:21.594Z,5.00
2023-04-02T18:16:34.248Z,5.13
2023-04-02T18:21:40.374Z,5.95
2023-04-02T18:26:49.316Z,5.68
2023-04-02T18:31:55.587Z,5.38
2023-04-02T18:37:04.819Z,6.07
2023-04-02T18:42:11.535Z,8.13
2023-04-02T18:47:20.997Z,7.07
2023-04-02T18:52:24.824Z,6.97
2023-04-02T18:57:30.509Z,6.50
2023-04-02T19:02:41.356Z,6.15
2023-04-02T19:07:46.596Z,7.68
2023-04-02T19:12:50.602Z,7.20
2023-04-02T19:28:07.408Z,5.95
2023-04-02T19:33:15.488Z,4.25
2023-04-02T19:38:29.679Z,7.95
2023-04-02T19:43:33.516Z,6.50
2023-04-02T19:48:40.759Z,7.38
2023-04-02T19:53:44.745Z,7.80
2023-04-02T19:58:48.674Z,9.15
2023-04-02T20:03:51.408Z,8.25
2023-04-02T20:08:55.073Z,7.97
2023-04-02T20:13:59.667Z,9.00
2023-04-02T20:19:02.109Z,8.52
2023-04-02T20:24:05.637Z,5.88
2023-04-02T20:29:09.852Z,7.00
2023-04-02T20:34:12.650Z,5.78
2023-04-02T20:39:19.365Z,6.45
2023-04-02T20:44:23.270Z,8.45
2023-04-02T20:49:26.653Z,11.38
2023-04-02T20:54:29.197Z,8.65
2023-04-02T20:59:32.907Z,7.05
2023-04-02T21:04:35.816Z,9.07
2023-04-02T21:09:38.426Z,10.15
2023-04-02T21:14:43.007Z,7.23
2023-04-02T21:19:45.862Z,11.65
2023-04-02T21:24:48.395Z,8.18
2023-04-02T21:29:52.260Z,7.68
2023-04-02T21:34:56.181Z,9.80
2023-04-02T21:39:58.690Z,9.68
2023-04-02T21:45:02.797Z,7.65
2023-04-02T21:50:06.086Z,8.15
2023-04-02T21:55:09.119Z,10.15
2023-04-02T22:00:15.760Z,10.60
2023-04-02T22:05:19.274Z,10.38
2023-04-02T22:10:22.719Z,9.65
2023-04-02T22:15:27.075Z,12.73
2023-04-02T22:20:30.837Z,9.85
2023-04-02T22:25:33.719Z,11.25
2023-04-02T22:30:38.639Z,11.48
2023-04-02T22:35:41.958Z,12.50
2023-04-02T22:40:46.631Z,12.13
2023-04-02T22:45:51.042Z,13.55
2023-04-02T22:50:53.860Z,15.93
2023-04-02T22:56:02.377Z,11.50
2023-04-02T23:01:08.289Z,11.57
2023-04-02T23:06:21.103Z,11.30
2023-04-02T23:11:25.913Z,10.68
2023-04-02T23:16:30.552Z,13.02
2023-04-02T23:21:33.050Z,13.20
2023-04-02T23:26:35.725Z,12.15
2023-04-02T23:31:39.587Z,11.82
2023-04-02T23:36:42.174Z,10.65
2023-04-02T23:41:45.726Z,12.60
2023-04-02T23:46:49.610Z,12.02
2023-04-02T23:51:53.109Z,11.18
2023-04-02T23:56:56.038Z,11.15
